createdAt,value
2022-12-31T00:01:19.607Z,1.98
2022-12-31T00:03:46.102Z,1.70
2022-12-31T00:06:23.448Z,1.40
2022-12-31T00:08:50.044Z,1.77
2022-12-31T00:11:16.595Z,1.77
2022-12-31T00:13:43.296Z,2.05
2022-12-31T00:16:12.664Z,7.00
2022-12-31T00:18:39.423Z,5.03
2022-12-31T00:21:08.779Z,5.20
2022-12-31T00:23:35.683Z,5.43
2022-12-31T00:26:07.315Z,5.30
2022-12-31T00:28:34.544Z,4.93
2022-12-31T00:31:14.768Z,5.05
2022-12-31T00:33:41.277Z,5.47
2022-12-31T00:36:15.379Z,4.90
2022-12-31T00:41:08.753Z,4.13
2022-12-31T00:43:35.383Z,4.32
2022-12-31T00:46:02.030Z,4.53
2022-12-31T00:48:28.644Z,4.28
2022-12-31T00:50:55.322Z,3.85
2022-12-31T00:53:22.075Z,4.35
2022-12-31T00:55:48.594Z,4.03
2022-12-31T00:58:15.071Z,4.40
2022-12-31T01:00:41.568Z,3.72
2022-12-31T01:03:08.134Z,4.22
2022-12-31T01:05:35.225Z,3.42
2022-12-31T01:08:01.892Z,3.17
2022-12-31T01:10:46.969Z,3.63
2022-12-31T01:13:13.429Z,3.28
2022-12-31T01:15:39.977Z,3.33
2022-12-31T01:18:07.151Z,3.30
2022-12-31T01:20:37.273Z,3.20
2022-12-31T01:23:04.315Z,3.55
2022-12-31T01:25:30.768Z,2.92
2022-12-31T01:27:57.217Z,3.00
2022-12-31T01:30:23.724Z,3.30
2022-12-31T01:32:50.180Z,3.10
2022-12-31T01:35:16.696Z,3.00
2022-12-31T01:37:43.165Z,2.92
2022-12-31T01:40:09.892Z,3.33
2022-12-31T01:42:36.356Z,2.42
2022-12-31T01:45:02.847Z,2.67
2022-12-31T01:47:35.891Z,2.60
2022-12-31T01:50:06.507Z,3.13
2022-12-31T01:52:35.426Z,2.85
2022-12-31T01:55:40.650Z,2.72
2022-12-31T01:58:19.210Z,2.72
2022-12-31T02:00:45.659Z,2.55
2022-12-31T02:03:12.307Z,2.60
2022-12-31T02:05:51.812Z,2.95
2022-12-31T02:08:18.266Z,2.60
2022-12-31T02:10:44.716Z,2.60
2022-12-31T02:13:11.179Z,2.58
2022-12-31T02:15:56.008Z,2.47
2022-12-31T02:18:36.978Z,2.25
2022-12-31T02:21:27.388Z,2.20
2022-12-31T02:24:07.016Z,2.33
2022-12-31T02:26:50.334Z,2.03
2022-12-31T02:29:23.658Z,2.03
2022-12-31T02:32:02.878Z,2.03
2022-12-31T02:34:41.561Z,2.20
2022-12-31T02:37:09.671Z,2.10
2022-12-31T02:39:36.127Z,2.10
2022-12-31T02:42:02.610Z,2.30
2022-12-31T02:44:33.543Z,2.13
2022-12-31T02:47:32.576Z,2.03
2022-12-31T02:50:05.936Z,2.03
2022-12-31T02:52:56.086Z,2.28
2022-12-31T02:55:43.798Z,1.92
2022-12-31T02:58:14.411Z,1.73
2022-12-31T03:01:05.332Z,1.98
2022-12-31T03:03:31.845Z,1.65
2022-12-31T03:05:58.351Z,2.10
2022-12-31T03:08:26.886Z,1.90
2022-12-31T03:10:53.364Z,1.65
2022-12-31T03:13:19.821Z,1.50
2022-12-31T03:15:46.275Z,1.90
2022-12-31T03:18:16.878Z,1.27
2022-12-31T03:21:07.028Z,1.60
2022-12-31T03:23:40.025Z,1.35
2022-12-31T03:26:13.052Z,1.45
2022-12-31T03:28:41.426Z,1.30
2022-12-31T03:31:08.218Z,1.20
2022-12-31T03:33:36.336Z,1.38
2022-12-31T03:36:04.239Z,1.20
2022-12-31T03:38:30.696Z,0.90
2022-12-31T03:40:57.159Z,1.20
2022-12-31T03:43:23.631Z,1.10
2022-12-31T03:45:51.670Z,1.30
2022-12-31T03:48:18.346Z,1.10
2022-12-31T03:50:44.884Z,1.20
2022-12-31T03:53:11.402Z,1.05
2022-12-31T03:55:37.857Z,1.00
2022-12-31T03:58:04.328Z,1.08
2022-12-31T04:00:30.781Z,1.23
2022-12-31T04:02:57.575Z,1.00
2022-12-31T04:05:24.175Z,1.00
2022-12-31T04:07:52.131Z,0.90
2022-12-31T04:10:18.935Z,0.90
2022-12-31T04:12:45.546Z,0.65
2022-12-31T04:15:16.391Z,0.80
2022-12-31T04:17:42.836Z,0.90
2022-12-31T04:20:09.824Z,0.95
2022-12-31T04:22:36.303Z,0.63
2022-12-31T04:25:02.776Z,0.88
2022-12-31T04:27:29.230Z,0.70
2022-12-31T04:29:55.939Z,0.60
2022-12-31T04:32:22.421Z,0.57
2022-12-31T04:34:48.890Z,0.70
2022-12-31T04:37:15.388Z,0.50
2022-12-31T04:39:41.840Z,0.80
2022-12-31T04:42:08.296Z,0.60
2022-12-31T04:44:35.104Z,0.57
2022-12-31T04:47:01.795Z,0.50
2022-12-31T04:49:28.335Z,0.50
2022-12-31T04:51:55.031Z,0.60
2022-12-31T04:54:21.504Z,0.60
2022-12-31T04:56:48.213Z,0.65
2022-12-31T04:59:14.673Z,0.60
2022-12-31T05:01:41.252Z,0.52
2022-12-31T05:04:07.983Z,0.63
2022-12-31T05:06:34.519Z,0.32
2022-12-31T05:09:01.212Z,0.43
2022-12-31T05:11:27.675Z,0.60
2022-12-31T05:13:54.135Z,0.45
2022-12-31T05:16:20.656Z,0.50
2022-12-31T05:18:47.187Z,0.40
2022-12-31T05:21:17.553Z,0.38
2022-12-31T05:23:44.022Z,0.47
2022-12-31T05:26:10.472Z,0.47
2022-12-31T05:28:36.945Z,0.55
2022-12-31T05:31:03.464Z,0.43
2022-12-31T05:33:30.334Z,0.40
2022-12-31T05:35:58.629Z,0.30
2022-12-31T05:38:25.533Z,0.40
2022-12-31T05:41:02.232Z,0.30
2022-12-31T05:43:28.707Z,0.40
2022-12-31T05:45:55.259Z,0.32
2022-12-31T05:48:21.743Z,0.40
2022-12-31T05:50:49.415Z,0.30
2022-12-31T05:53:15.892Z,0.50
2022-12-31T05:55:42.455Z,0.28
2022-12-31T05:58:09.234Z,0.20
2022-12-31T06:00:35.707Z,0.40
2022-12-31T06:03:02.318Z,0.32
2022-12-31T06:05:28.903Z,0.30
2022-12-31T06:07:55.359Z,0.30
2022-12-31T06:10:21.824Z,0.38
2022-12-31T06:12:48.491Z,0.30
2022-12-31T06:15:14.978Z,0.40
2022-12-31T06:17:41.430Z,0.30
2022-12-31T06:20:12.813Z,0.30
2022-12-31T06:22:39.828Z,0.20
2022-12-31T06:25:06.699Z,0.20
2022-12-31T06:27:33.141Z,0.30
2022-12-31T06:29:59.633Z,0.30
2022-12-31T06:32:26.392Z,0.15
2022-12-31T06:34:52.896Z,0.20
2022-12-31T06:37:19.347Z,0.10
2022-12-31T06:39:45.800Z,0.10
2022-12-31T06:42:12.259Z,0.20
2022-12-31T06:44:38.748Z,0.30
2022-12-31T06:47:05.288Z,0.10
2022-12-31T06:49:31.739Z,0.20
2022-12-31T06:51:58.196Z,0.15
2022-12-31T06:54:24.696Z,0.20
2022-12-31T06:56:51.345Z,0.15
2022-12-31T06:59:28.228Z,0.17
2022-12-31T07:02:12.262Z,0.20
2022-12-31T07:05:01.104Z,0.20
2022-12-31T07:07:54.748Z,0.10
2022-12-31T07:10:27.324Z,0.17
2022-12-31T07:13:05.826Z,0.20
2022-12-31T07:15:47.990Z,0.10
2022-12-31T07:18:25.539Z,0.10
2022-12-31T07:20:52.117Z,0.20
2022-12-31T07:23:18.834Z,0.20
2022-12-31T07:25:52.026Z,0.10
2022-12-31T07:28:36.640Z,0.10
2022-12-31T07:31:08.022Z,0.10
2022-12-31T07:33:46.465Z,0.10
2022-12-31T07:36:38.690Z,0.20
2022-12-31T07:39:12.927Z,0.20
2022-12-31T07:41:51.497Z,0.10
2022-12-31T07:44:57.097Z,0.17
2022-12-31T07:47:27.618Z,0.15
2022-12-31T07:49:54.727Z,0.30
2022-12-31T07:52:21.460Z,0.22
2022-12-31T07:54:47.964Z,0.15
2022-12-31T07:57:15.968Z,0.30
2022-12-31T07:59:42.350Z,0.10
2022-12-31T08:02:21.717Z,0.20
2022-12-31T08:05:00.765Z,0.30
2022-12-31T08:07:50.941Z,0.40
2022-12-31T08:10:35.575Z,0.10
2022-12-31T08:13:02.905Z,0.10
2022-12-31T08:15:30.750Z,0.20
2022-12-31T08:17:57.666Z,0.10
2022-12-31T08:20:24.232Z,0.30
2022-12-31T08:23:24.610Z,0.22
2022-12-31T08:26:04.421Z,0.10
2022-12-31T08:28:46.776Z,0.20
2022-12-31T08:31:28.814Z,0.20
2022-12-31T08:33:58.416Z,0.20
2022-12-31T08:36:52.554Z,0.20
2022-12-31T08:39:37.354Z,0.10
2022-12-31T08:42:04.981Z,0.10
2022-12-31T08:44:39.534Z,0.10
2022-12-31T08:47:35.455Z,0.10
2022-12-31T08:50:05.207Z,0.10
2022-12-31T08:52:31.834Z,0.20
2022-12-31T08:54:59.017Z,0.10
2022-12-31T08:57:39.500Z,0.20
2022-12-31T09:00:09.919Z,0.00
2022-12-31T09:02:58.529Z,0.17
2022-12-31T09:05:42.281Z,0.40
2022-12-31T09:08:15.457Z,0.30
2022-12-31T09:10:55.649Z,0.20
2022-12-31T09:13:24.837Z,0.40
2022-12-31T09:15:56.931Z,0.30
2022-12-31T09:18:27.056Z,0.30
2022-12-31T09:20:56.220Z,0.15
2022-12-31T09:23:22.829Z,0.28
2022-12-31T09:26:05.120Z,0.10
2022-12-31T09:28:37.204Z,0.20
2022-12-31T09:31:26.570Z,0.28
2022-12-31T09:34:16.113Z,0.20
2022-12-31T09:36:49.333Z,0.22
2022-12-31T09:39:37.944Z,0.20
2022-12-31T09:42:35.339Z,0.13
2022-12-31T09:45:22.958Z,0.20
2022-12-31T09:48:20.337Z,0.13
2022-12-31T09:51:08.591Z,0.30
2022-12-31T09:54:11.380Z,0.22
2022-12-31T09:57:06.886Z,0.40
2022-12-31T09:59:46.609Z,0.30
2022-12-31T10:02:52.152Z,0.20
2022-12-31T10:05:31.383Z,0.20
2022-12-31T10:08:05.038Z,0.45
2022-12-31T10:10:41.705Z,0.22
2022-12-31T10:13:20.047Z,0.30
2022-12-31T10:16:23.062Z,0.20
2022-12-31T10:19:12.292Z,0.25
2022-12-31T10:21:58.996Z,0.20
2022-12-31T10:24:43.498Z,0.20
2022-12-31T10:27:21.278Z,0.43
2022-12-31T10:29:54.881Z,0.22
2022-12-31T10:32:45.973Z,0.30
2022-12-31T10:35:31.204Z,0.30
2022-12-31T10:38:35.301Z,0.40
2022-12-31T10:41:29.779Z,0.37
2022-12-31T10:44:25.550Z,0.70
2022-12-31T10:47:08.088Z,0.20
2022-12-31T10:50:02.461Z,0.45
2022-12-31T10:52:39.795Z,0.38
2022-12-31T10:55:33.078Z,0.55
2022-12-31T10:58:12.896Z,0.57
2022-12-31T11:00:46.360Z,0.40
2022-12-31T11:03:29.356Z,0.25
2022-12-31T11:06:15.817Z,0.40
2022-12-31T11:08:49.986Z,0.47
2022-12-31T11:11:28.816Z,0.30
2022-12-31T11:14:20.223Z,0.35
2022-12-31T11:17:04.864Z,0.50
2022-12-31T11:20:06.150Z,0.40
2022-12-31T11:22:53.958Z,0.40
2022-12-31T11:25:30.754Z,0.30
2022-12-31T11:28:08.967Z,0.60
2022-12-31T11:31:06.585Z,0.40
2022-12-31T11:33:51.311Z,0.65
2022-12-31T11:36:36.911Z,0.40
2022-12-31T11:39:27.250Z,0.40
2022-12-31T11:42:18.528Z,0.28
2022-12-31T11:45:11.143Z,0.50
2022-12-31T11:48:29.050Z,0.50
2022-12-31T11:51:07.767Z,0.50
2022-12-31T11:54:01.258Z,0.47
2022-12-31T11:56:32.217Z,0.30
2022-12-31T11:58:59.475Z,0.35
2022-12-31T12:01:36.355Z,0.68
2022-12-31T12:04:03.030Z,0.47
2022-12-31T12:06:31.664Z,0.50
2022-12-31T12:09:06.222Z,0.40
2022-12-31T12:11:35.231Z,0.40
2022-12-31T12:14:02.007Z,0.50
2022-12-31T12:16:28.620Z,0.40
2022-12-31T12:19:14.481Z,0.52
2022-12-31T12:21:45.793Z,0.30
2022-12-31T12:24:22.994Z,0.40
2022-12-31T12:26:49.525Z,0.40
2022-12-31T12:29:24.163Z,0.30
2022-12-31T12:31:57.255Z,0.68
2022-12-31T12:34:28.673Z,0.40
2022-12-31T12:36:55.237Z,0.52
2022-12-31T12:39:23.533Z,0.30
2022-12-31T12:42:08.048Z,0.40
2022-12-31T12:44:35.809Z,0.40
2022-12-31T12:47:03.341Z,0.60
2022-12-31T12:49:32.703Z,0.40
2022-12-31T12:52:26.307Z,0.60
2022-12-31T12:55:05.131Z,0.70
2022-12-31T12:57:52.888Z,0.30
2022-12-31T13:00:38.925Z,0.40
2022-12-31T13:03:41.736Z,0.40
2022-12-31T13:06:36.877Z,0.50
2022-12-31T13:09:22.163Z,0.40
2022-12-31T13:12:07.262Z,0.50
2022-12-31T13:15:19.352Z,0.40
2022-12-31T13:18:13.678Z,0.55
2022-12-31T13:20:50.393Z,0.30
2022-12-31T13:23:39.386Z,0.20
2022-12-31T13:26:17.164Z,0.47
2022-12-31T13:28:43.832Z,0.43
2022-12-31T13:31:13.249Z,0.52
2022-12-31T13:33:43.265Z,0.40
2022-12-31T13:36:13.708Z,0.40
2022-12-31T13:38:46.147Z,0.30
2022-12-31T13:41:19.349Z,0.60
2022-12-31T13:43:54.681Z,0.40
2022-12-31T13:46:33.270Z,0.50
2022-12-31T13:49:01.914Z,0.50
2022-12-31T13:51:40.768Z,0.52
2022-12-31T13:54:18.124Z,0.60
2022-12-31T13:56:44.635Z,0.47
2022-12-31T13:59:29.481Z,0.47
2022-12-31T14:02:07.652Z,0.40
2022-12-31T14:04:37.227Z,0.40
2022-12-31T14:07:15.249Z,0.52
2022-12-31T14:09:42.399Z,0.30
2022-12-31T14:12:36.661Z,0.68
2022-12-31T14:15:09.474Z,0.40
2022-12-31T14:17:49.857Z,0.60
2022-12-31T14:20:46.914Z,0.50
2022-12-31T14:23:34.522Z,0.30
2022-12-31T14:26:40.030Z,0.55
2022-12-31T14:29:18.955Z,0.40
2022-12-31T14:31:48.450Z,0.30
2022-12-31T14:34:49.680Z,0.32
2022-12-31T14:37:25.071Z,0.60
2022-12-31T14:40:06.558Z,0.52
2022-12-31T14:42:38.232Z,0.50
2022-12-31T14:45:19.911Z,0.47
2022-12-31T14:47:55.322Z,0.50
2022-12-31T14:50:29.061Z,1.02
2022-12-31T14:53:06.169Z,4.25
2022-12-31T14:55:36.614Z,5.90
2022-12-31T14:58:27.915Z,7.50
2022-12-31T15:00:56.968Z,7.38
2022-12-31T15:03:24.548Z,6.60
2022-12-31T15:05:52.035Z,6.22
2022-12-31T15:08:42.780Z,5.90
2022-12-31T15:11:34.703Z,6.03
2022-12-31T15:14:41.899Z,6.07
2022-12-31T15:17:36.880Z,5.93
2022-12-31T15:20:33.891Z,5.97
2022-12-31T15:23:00.360Z,5.53
2022-12-31T15:25:38.661Z,5.80
2022-12-31T15:28:21.146Z,5.15
2022-12-31T15:30:47.822Z,5.28
2022-12-31T15:33:29.743Z,5.15
2022-12-31T15:35:57.041Z,5.47
2022-12-31T15:38:34.205Z,5.40
2022-12-31T15:41:00.917Z,4.97
2022-12-31T15:43:29.501Z,4.40
2022-12-31T15:45:56.022Z,4.60
2022-12-31T15:48:43.309Z,5.82
2022-12-31T15:51:16.581Z,4.80
2022-12-31T15:53:43.984Z,5.57
2022-12-31T15:56:17.865Z,5.13
2022-12-31T15:58:44.567Z,5.45
2022-12-31T16:01:22.713Z,5.20
2022-12-31T16:03:57.625Z,4.88
2022-12-31T16:06:24.095Z,5.63
2022-12-31T16:08:50.634Z,4.82
2022-12-31T16:11:17.125Z,4.75
2022-12-31T16:13:49.464Z,4.90
2022-12-31T16:16:27.695Z,4.82
2022-12-31T16:18:54.251Z,4.68
2022-12-31T16:21:32.525Z,4.75
2022-12-31T16:24:25.105Z,4.50
2022-12-31T16:26:52.998Z,4.93
2022-12-31T16:29:19.907Z,4.45
2022-12-31T16:31:46.866Z,4.82
2022-12-31T16:34:24.241Z,4.13
2022-12-31T16:37:05.198Z,4.60
2022-12-31T16:39:38.245Z,4.53
2022-12-31T16:42:13.792Z,4.18
2022-12-31T16:44:40.429Z,4.13
2022-12-31T16:47:07.820Z,4.30
2022-12-31T16:49:35.815Z,4.45
2022-12-31T16:52:07.808Z,3.80
2022-12-31T16:54:38.322Z,4.07
2022-12-31T16:57:05.537Z,3.58
2022-12-31T16:59:40.853Z,3.65
2022-12-31T17:02:14.889Z,3.50
2022-12-31T17:04:46.940Z,3.40
2022-12-31T17:07:26.581Z,3.22
2022-12-31T17:10:02.243Z,3.72
2022-12-31T17:12:29.045Z,3.55
2022-12-31T17:14:55.590Z,3.30
2022-12-31T17:17:23.890Z,3.28
2022-12-31T17:19:51.258Z,3.53
2022-12-31T17:22:35.743Z,3.42
2022-12-31T17:25:23.553Z,3.35
2022-12-31T17:27:58.494Z,3.17
2022-12-31T17:30:27.815Z,3.22
2022-12-31T17:33:26.170Z,3.85
2022-12-31T17:36:15.192Z,3.38
2022-12-31T17:38:41.657Z,4.38
2022-12-31T17:41:07.943Z,4.72
2022-12-31T17:43:37.909Z,4.70
2022-12-31T17:46:14.544Z,4.20
2022-12-31T17:48:41.184Z,4.15
2022-12-31T17:51:07.701Z,8.27
2022-12-31T17:53:34.410Z,6.68
2022-12-31T17:56:02.642Z,6.03
2022-12-31T17:58:42.261Z,6.07
2022-12-31T18:01:09.109Z,5.93
2022-12-31T18:03:35.763Z,6.32
2022-12-31T18:06:02.310Z,6.18
2022-12-31T18:08:28.834Z,6.22
2022-12-31T18:10:55.350Z,24.55
2022-12-31T18:13:25.578Z,20.35
2022-12-31T18:15:52.500Z,16.73
2022-12-31T18:18:24.726Z,13.63
2022-12-31T18:20:53.918Z,14.20
2022-12-31T18:23:22.583Z,12.70
2022-12-31T18:25:49.069Z,12.70
2022-12-31T18:28:15.843Z,13.45
2022-12-31T18:30:42.798Z,13.85
2022-12-31T18:33:11.450Z,14.35
2022-12-31T18:36:07.837Z,15.35
2022-12-31T18:38:24.367Z,17.15
2022-12-31T18:40:56.268Z,18.02
2022-12-31T18:43:22.746Z,16.25
2022-12-31T18:45:49.374Z,17.48
2022-12-31T18:48:16.199Z,16.80
2022-12-31T18:50:42.660Z,14.55
2022-12-31T18:53:16.691Z,14.13
2022-12-31T18:58:29.686Z,12.98
2022-12-31T19:00:56.168Z,12.93
2022-12-31T19:03:23.653Z,12.73
2022-12-31T19:05:50.814Z,11.90
2022-12-31T19:08:18.373Z,12.55
2022-12-31T19:10:45.016Z,12.45
2022-12-31T19:13:14.974Z,12.55
2022-12-31T19:15:46.218Z,12.88
2022-12-31T19:18:12.828Z,11.30
2022-12-31T19:20:39.642Z,11.38
2022-12-31T19:23:06.117Z,11.85
2022-12-31T19:25:34.106Z,10.43
2022-12-31T19:28:01.645Z,11.48
2022-12-31T19:30:29.987Z,11.02
2022-12-31T19:32:56.569Z,11.02
2022-12-31T19:35:23.233Z,9.48
2022-12-31T19:37:50.515Z,10.40
2022-12-31T19:40:18.820Z,9.25
2022-12-31T19:42:45.473Z,10.30
2022-12-31T19:45:15.778Z,10.32
2022-12-31T19:47:42.308Z,9.23
2022-12-31T19:50:11.752Z,10.25
2022-12-31T19:52:38.221Z,9.27
2022-12-31T19:55:04.949Z,9.80
2022-12-31T19:57:31.421Z,8.88
2022-12-31T19:59:57.906Z,9.55
2022-12-31T20:02:24.723Z,9.35
2022-12-31T20:04:51.291Z,9.50
2022-12-31T20:07:22.139Z,8.40
2022-12-31T20:12:18.228Z,9.25
2022-12-31T20:14:44.712Z,9.25
2022-12-31T20:17:11.212Z,9.55
2022-12-31T20:19:37.684Z,9.32
2022-12-31T20:22:04.132Z,10.15
2022-12-31T20:24:30.601Z,11.48
2022-12-31T20:26:57.096Z,2.75
2022-12-31T20:29:23.553Z,2.08
2022-12-31T20:31:50.005Z,3.13
2022-12-31T20:34:16.528Z,2.35
2022-12-31T20:36:42.983Z,2.97
2022-12-31T20:39:09.696Z,7.25
2022-12-31T20:41:36.170Z,6.88
2022-12-31T20:44:02.735Z,7.25
2022-12-31T20:46:30.120Z,7.13
2022-12-31T20:48:58.851Z,7.63
2022-12-31T20:51:25.414Z,7.57
2022-12-31T20:53:56.477Z,7.30
2022-12-31T20:56:23.483Z,7.43
2022-12-31T20:58:49.986Z,7.70
2022-12-31T21:01:16.707Z,7.28
2022-12-31T21:06:30.788Z,7.32
2022-12-31T21:08:58.470Z,6.07
2022-12-31T21:11:43.595Z,6.88
2022-12-31T21:14:10.067Z,2.92
2022-12-31T21:16:36.700Z,2.33
2022-12-31T21:19:03.317Z,2.72
2022-12-31T21:21:29.792Z,2.35
2022-12-31T21:23:56.306Z,2.78
2022-12-31T21:26:22.787Z,2.67
2022-12-31T21:28:49.271Z,2.95
2022-12-31T21:31:15.762Z,3.55
2022-12-31T21:33:45.834Z,2.92
2022-12-31T21:36:12.635Z,2.80
2022-12-31T21:38:39.264Z,2.88
2022-12-31T21:41:06.643Z,2.47
2022-12-31T21:43:33.346Z,9.88
2022-12-31T21:46:01.507Z,15.95
2022-12-31T21:48:28.062Z,13.23
2022-12-31T21:50:55.607Z,10.60
2022-12-31T21:53:26.278Z,11.20
2022-12-31T21:56:14.645Z,10.38
2022-12-31T21:58:43.247Z,9.50
2022-12-31T22:01:48.604Z,8.30
2022-12-31T22:04:43.204Z,8.35
2022-12-31T22:07:01.595Z,7.80
2022-12-31T22:09:28.059Z,7.68
2022-12-31T22:11:54.563Z,7.55
2022-12-31T22:14:21.048Z,7.20
2022-12-31T22:16:47.526Z,7.50
2022-12-31T22:19:14.095Z,7.15
2022-12-31T22:21:40.555Z,7.45
2022-12-31T22:24:07.354Z,7.60
2022-12-31T22:26:33.849Z,7.43
2022-12-31T22:29:00.357Z,7.30
2022-12-31T22:31:29.823Z,7.25
2022-12-31T22:33:56.461Z,7.43
2022-12-31T22:36:23.103Z,3.97
2022-12-31T22:38:50.749Z,3.28
2022-12-31T22:41:19.383Z,4.93
2022-12-31T22:43:47.905Z,5.28
2022-12-31T22:46:21.854Z,6.97
2022-12-31T22:51:14.814Z,16.15
2022-12-31T22:53:41.555Z,20.13
2022-12-31T22:56:08.465Z,23.15
2022-12-31T22:58:34.954Z,24.92
2022-12-31T23:01:04.925Z,27.33
2022-12-31T23:03:31.790Z,26.88
2022-12-31T23:05:58.375Z,27.38
2022-12-31T23:08:24.836Z,26.50
2022-12-31T23:11:05.531Z,25.65
2022-12-31T23:13:57.963Z,27.90
2022-12-31T23:16:43.904Z,26.20
2022-12-31T23:19:29.129Z,25.33
2022-12-31T23:22:14.028Z,22.42
2022-12-31T23:24:40.588Z,23.70
2022-12-31T23:27:07.352Z,23.35
2022-12-31T23:29:33.842Z,24.23
2022-12-31T23:32:00.327Z,23.05
2022-12-31T23:34:26.857Z,22.70
2022-12-31T23:36:53.331Z,22.00
2022-12-31T23:39:19.796Z,22.52
2022-12-31T23:41:46.251Z,21.85
2022-12-31T23:44:12.708Z,22.10
2022-12-31T23:46:39.836Z,22.48
2022-12-31T23:49:06.406Z,22.10
2022-12-31T23:51:33.088Z,22.15
2022-12-31T23:53:59.563Z,21.42
2022-12-31T23:56:26.080Z,22.35
2022-12-31T23:58:55.926Z,21.05
